• Join FlightAware (Why Join?)
  • Login
  • US Flag 
07:04AM EDT


 

Airport Tracker/Info


-or-


 

Live Flight TrackerFlight Track Log ✈ N450S ✈ 20-Sep-2013 ✈ KLPR - CYYZ

Flight Track Log - Related Links

Times and Time Zones

All times are in EDT time to prevent confusion due to time zone crossing. See the N450S flight status page for this flight to view local times or setup timezone preferences in your user account.

Time Position Orientation Groundspeed Altitude Reporting Facility
EDT Latitude Longitude Course Direction KTS MPH feet Rate Location/Type
08:38AM 41.3378 -82.1956 287° West 129 148 1,300  Level Cleveland Center
08:39AM 41.3453 -82.2275 287° West 155 178 2,600 1,260 Climbing Cleveland Center
08:40AM 41.3928 -82.2353 353° North 211 243 3,400 780 Climbing Cleveland Center
08:40AM 41.3917 -82.2342 143° Southeast 179 206 3,400 1,380 Level Cleveland Center
08:41AM 41.4583 -82.2297 North 199 229 5,100 1,560 Climbing Cleveland Center
08:42AM 41.5067 -82.2072 19° North 205 236 6,600 1,440 Climbing Cleveland Center
08:42AM 41.5033 -82.2075 184° South 209 241 6,500 1,260 Descending Cleveland Center
08:43AM 41.5542 -82.1706 29° Northeast 206 237 8,000 1,620 Climbing Cleveland Center
08:45AM 41.6692 -82.0944 26° Northeast 209 241 11,700 1,740 Climbing Cleveland Center
08:46AM 41.7175 -82.0603 28° Northeast 198 228 13,400 1,680 Climbing Cleveland Center
08:47AM 41.7650 -82.0269 28° Northeast 193 222 15,200 1,560 Climbing Cleveland Center
08:48AM 41.8050 -81.9861 37° Northeast 181 208 16,700 840 Climbing Cleveland Center
08:49AM 41.8547 -81.9392 35° Northeast 223 257 17,000 180 Climbing Cleveland Center
08:50AM 41.9150 -81.8822 35° Northeast 261 300 17,100  Climbing Cleveland Center
08:51AM 41.9783 -81.8228 35° Northeast 273 314 17,000 -60 Descending Cleveland Center
08:52AM 42.0431 -81.7625 35° Northeast 279 321 17,000  Level Cleveland Center
08:53AM 42.1061 -81.7022 35° Northeast 278 320 17,000  Level Cleveland Center
08:54AM 42.1783 -81.6319 36° Northeast 273 314 17,000  Level Cleveland Center
08:55AM 42.2386 -81.5753 35° Northeast 264 304 17,000  Level Cleveland Center
08:56AM 42.3019 -81.5142 36° Northeast 273 314 17,000  Level Cleveland Center
08:57AM 42.3664 -81.4533 35° Northeast 280 322 17,000  Level Cleveland Center
08:58AM 42.4300 -81.3917 36° Northeast 280 322 17,000  Level Cleveland Center
08:59AM 42.4939 -81.3286 36° Northeast 280 322 17,000  Level Cleveland Center
09:00AM 42.5567 -81.2692 35° Northeast 275 316 17,000  Level Cleveland Center
09:01AM 42.6200 -81.2081 35° Northeast 276 318 17,000  Level Cleveland Center
09:02AM 42.6836 -81.1169 46° Northeast 284 327 17,000  Level Cleveland Center
09:03AM 42.7356 -81.0322 50° Northeast 289 333 17,000  Level Cleveland Center
09:04AM 42.7886 -80.9525 48° Northeast 284 327 17,000  Level Cleveland Center
09:07AM 42.9000 -80.7667 51° Northeast 280 322 17,000  Level Toronto Center
09:08AM 42.9500 -80.6833 51° Northeast 280 322 17,000  Level Toronto Center
09:09AM 43.0000 -80.6167 44° Northeast 280 322 17,000  Level Toronto Center
09:10AM 43.0500 -80.5167 56° Northeast 290 334 17,000  Level Toronto Center
09:11AM 43.1000 -80.4500 44° Northeast 290 334 17,000  Level Toronto Center
09:12AM 43.1667 -80.3667 42° Northeast 290 334 17,000 -300 Level Toronto Center
09:13AM 43.2333 -80.3500 10° North 290 334 16,500 -900 Descending Toronto Center
09:14AM 43.3167 -80.3167 16° North 310 357 15,300 -1,380 Descending Toronto Center
09:15AM 43.4000 -80.2500 30° Northeast 320 368 13,800 -2,100 Descending Toronto Center
09:16AM 43.4667 -80.2000 29° Northeast 310 357 11,100 -2,400 Descending Toronto Center
09:17AM 43.5167 -80.1167 50° Northeast 300 345 9,000 -1,080 Descending Toronto Center
09:18AM 43.5500 -80.0167 65° Northeast 280 322 9,000  Level Toronto Center
09:19AM 43.5667 -79.9167 77° East 270 311 9,000 -60 Level Toronto Center
09:20AM 43.6000 -79.8333 61° Northeast 270 311 8,900 -540 Descending Toronto Center
09:21AM 43.6667 -79.7667 36° Northeast 280 322 8,000 -900 Descending Toronto Center
09:22AM 43.7333 -79.7000 36° Northeast 270 311 7,200 -900 Descending Toronto Center
09:23AM 43.7833 -79.6333 44° Northeast 270 311 6,200 -1,080 Descending Toronto Center
09:24AM 43.8333 -79.5667 44° Northeast 270 311 5,100 -1,140 Descending Toronto Center
09:25AM 43.8167 -79.5000 109° East 240 276 4,000 -1,140 Descending Toronto Center
09:26AM 43.7667 -79.5000 180° South 210 242 2,900 -960 Descending Toronto Center
09:27AM 43.7333 -79.5333 216° Southwest 150 173 2,100 -780 Descending Toronto Center
09:28AM 43.7167 -79.5667 235° Southwest 140 161 1,400 -660 Descending Toronto Center
09:29AM 43.6833 -79.6167 227° Southwest 130 150 800 -480 Descending Toronto Center
09:30AM 43.6667 -79.6333 216° Southwest 60 69 500 -180 Descending Toronto Center
09:31AM 43.6667 -79.6333 216° Southwest 20 23 500  Level Toronto Center
09:32AM 43.6833 -79.6333 360° North 20 23 500  Level Toronto Center
09:33AM 43.6833 -79.6167 90° East 20 23 500  Level Toronto Center
09:34AM 43.6833 -79.6167 90° East 10 12 500  Level Toronto Center